Time;durP1;ratioP1;P1;durP2;ratioP2;P2;SDS_P1;SDS_P2;PMS_P1;PMS_P2;Temp;Humidity;BMP_temperature;BMP_pressure;BME280_temperature;BME280_humidity;BME280_pressure;Samples;Min_cycle;Max_cycle;Signal;HPM_P1;HPM_P2
2024/03/26 00:02:13;;;;;;;5.38;2.33;;;;;;;;;;5001630;28;20041;-62
2024/03/26 00:04:38;;;;;;;2.88;2.05;;;;;;;;;;5002415;28;20556;-63
2024/03/26 00:07:03;;;;;;;3.75;2.28;;;;;;;;;;5003345;28;20545;-62
2024/03/26 00:09:29;;;;;;;3.50;2.17;;;;;;;;;;4992063;28;20486;-62
2024/03/26 00:11:55;;;;;;;4.63;2.38;;;;;;;;;;5003354;28;20073;-60
2024/03/26 00:14:20;;;;;;;3.28;2.08;;;;;;;;;;5008451;28;20034;-61
2024/03/26 00:16:46;;;;;;;3.78;2.28;;;;;;;;;;5006979;28;20397;-60
2024/03/26 00:19:11;;;;;;;4.80;2.50;;;;;;;;;;4996985;28;20470;-63
2024/03/26 00:21:37;;;;;;;3.28;1.92;;;;;;;;;;4999491;28;20038;-61
2024/03/26 00:24:02;;;;;;;3.50;2.33;;;;;;;;;;5008352;28;20038;-61
2024/03/26 00:26:27;;;;;;;3.67;2.30;;;;;;;;;;4995530;28;20065;-63
2024/03/26 00:28:53;;;;;;;4.28;2.50;;;;;;;;;;5008484;28;20041;-61
2024/03/26 00:31:18;;;;;;;3.30;2.30;;;;;;;;;;4995840;28;20042;-62
2024/03/26 00:33:43;;;;;;;3.65;2.40;;;;;;;;;;5008444;28;20073;-63
2024/03/26 00:36:09;;;;;;;3.97;2.30;;;;;;;;;;5008244;28;20057;-60
2024/03/26 00:38:34;;;;;;;3.13;2.08;;;;;;;;;;5006892;28;20065;-60
2024/03/26 00:40:59;;;;;;;3.83;2.13;;;;;;;;;;5004809;28;20030;-62
2024/03/26 00:43:25;;;;;;;3.40;2.10;;;;;;;;;;5008133;28;20149;-61
2024/03/26 00:45:50;;;;;;;3.95;2.78;;;;;;;;;;5003406;28;20352;-61
2024/03/26 00:48:15;;;;;;;2.85;2.00;;;;;;;;;;5002223;28;20046;-62
2024/03/26 00:50:41;;;;;;;4.25;2.25;;;;;;;;;;4996463;28;20415;-62
2024/03/26 00:53:06;;;;;;;3.58;2.25;;;;;;;;;;4998073;28;20443;-62
2024/03/26 00:55:31;;;;;;;3.45;2.22;;;;;;;;;;4999336;28;20034;-61
2024/03/26 00:57:57;;;;;;;4.00;2.30;;;;;;;;;;4998982;28;20034;-62
2024/03/26 01:00:22;;;;;;;3.20;2.10;;;;;;;;;;5007067;28;20038;-60
2024/03/26 01:02:47;;;;;;;3.95;2.30;;;;;;;;;;4981392;28;20039;-60
2024/03/26 01:05:12;;;;;;;3.28;2.17;;;;;;;;;;4993367;28;20038;-61
2024/03/26 01:07:38;;;;;;;3.38;2.28;;;;;;;;;;5018962;28;20041;-60
2024/03/26 01:10:03;;;;;;;4.78;2.47;;;;;;;;;;5006826;28;20231;-59
2024/03/26 01:12:30;;;;;;;2.75;1.90;;;;;;;;;;4991430;28;20049;-63
2024/03/26 01:14:55;;;;;;;4.03;2.38;;;;;;;;;;4987104;28;20030;-60
2024/03/26 01:17:20;;;;;;;5.40;2.53;;;;;;;;;;4997690;28;20042;-62
2024/03/26 01:19:46;;;;;;;3.80;2.58;;;;;;;;;;5002945;28;20031;-59
2024/03/26 01:22:11;;;;;;;4.03;2.50;;;;;;;;;;4988334;28;20022;-61
2024/03/26 01:24:36;;;;;;;3.15;2.15;;;;;;;;;;5005282;28;20033;-60
2024/03/26 01:27:02;;;;;;;2.88;2.08;;;;;;;;;;5004899;28;20034;-61
2024/03/26 01:29:27;;;;;;;3.25;2.03;;;;;;;;;;5004545;28;20411;-60
2024/03/26 01:31:52;;;;;;;4.18;2.10;;;;;;;;;;5005722;28;20123;-60
2024/03/26 01:34:18;;;;;;;3.65;2.45;;;;;;;;;;4997842;28;20048;-62
2024/03/26 01:36:43;;;;;;;3.28;2.22;;;;;;;;;;4991740;28;20065;-61
2024/03/26 01:39:09;;;;;;;4.18;2.60;;;;;;;;;;5002872;28;20081;-60
2024/03/26 01:41:34;;;;;;;3.70;2.22;;;;;;;;;;4999098;28;20129;-60
2024/03/26 01:43:59;;;;;;;4.53;2.40;;;;;;;;;;4992967;28;20030;-62
2024/03/26 01:46:25;;;;;;;4.00;2.67;;;;;;;;;;5000905;28;20042;-63
2024/03/26 01:48:51;;;;;;;3.38;2.20;;;;;;;;;;4988270;28;20124;-60
2024/03/26 01:51:16;;;;;;;3.45;2.50;;;;;;;;;;5026754;28;20064;-60
2024/03/26 01:53:42;;;;;;;4.03;2.40;;;;;;;;;;4997779;28;20042;-62
2024/03/26 01:56:07;;;;;;;4.40;2.60;;;;;;;;;;4986197;28;20041;-61
2024/03/26 01:58:32;;;;;;;3.67;2.30;;;;;;;;;;5005729;28;20034;-62
2024/03/26 02:00:57;;;;;;;3.13;2.28;;;;;;;;;;5005132;28;20073;-59
2024/03/26 02:03:23;;;;;;;3.47;2.30;;;;;;;;;;4994618;28;20045;-62
2024/03/26 02:05:48;;;;;;;4.50;2.80;;;;;;;;;;4987459;28;21190;-60
2024/03/26 02:08:13;;;;;;;4.05;2.58;;;;;;;;;;4991584;28;20145;-60
2024/03/26 02:10:39;;;;;;;4.35;2.45;;;;;;;;;;4991737;28;20514;-60
2024/03/26 02:13:04;;;;;;;3.42;2.30;;;;;;;;;;5002282;28;20125;-61
2024/03/26 02:15:29;;;;;;;3.58;2.60;;;;;;;;;;4986959;28;20038;-61
2024/03/26 02:17:54;;;;;;;4.03;2.47;;;;;;;;;;5000017;28;20042;-60
2024/03/26 02:20:20;;;;;;;3.60;2.35;;;;;;;;;;5006622;28;20069;-62
2024/03/26 02:22:46;;;;;;;3.55;2.25;;;;;;;;;;4986975;28;20027;-64
2024/03/26 02:25:11;;;;;;;3.97;2.50;;;;;;;;;;4986710;28;20540;-61
2024/03/26 02:27:36;;;;;;;3.60;2.40;;;;;;;;;;4996272;28;20045;-60
2024/03/26 02:30:02;;;;;;;4.00;2.50;;;;;;;;;;5006426;28;20076;-61
2024/03/26 02:32:27;;;;;;;3.80;2.75;;;;;;;;;;5005581;28;20048;-60
2024/03/26 02:34:52;;;;;;;3.30;2.25;;;;;;;;;;5004753;28;20032;-62
2024/03/26 02:37:18;;;;;;;3.60;2.47;;;;;;;;;;4999161;28;20057;-63
2024/03/26 02:39:43;;;;;;;3.42;2.33;;;;;;;;;;5005575;28;20146;-61
2024/03/26 02:42:08;;;;;;;4.13;2.53;;;;;;;;;;5005647;28;20096;-60
2024/03/26 02:44:34;;;;;;;3.38;2.22;;;;;;;;;;4990772;28;20045;-63
2024/03/26 02:46:59;;;;;;;3.25;2.15;;;;;;;;;;4991102;28;20107;-61
2024/03/26 02:49:24;;;;;;;3.70;2.50;;;;;;;;;;4999373;28;20073;-64
2024/03/26 02:51:50;;;;;;;3.58;2.50;;;;;;;;;;4996568;28;20030;-60
2024/03/26 02:54:15;;;;;;;3.75;2.33;;;;;;;;;;4988509;28;20065;-63
2024/03/26 02:56:40;;;;;;;3.28;2.53;;;;;;;;;;5005172;28;20126;-61
2024/03/26 02:59:05;;;;;;;3.58;2.40;;;;;;;;;;5002659;28;20143;-62
2024/03/26 03:01:31;;;;;;;3.85;2.22;;;;;;;;;;5005548;28;20073;-62
2024/03/26 03:03:56;;;;;;;3.42;2.42;;;;;;;;;;4991547;28;20114;-61
2024/03/26 03:06:21;;;;;;;3.53;2.22;;;;;;;;;;5000255;28;20050;-61
2024/03/26 03:08:47;;;;;;;4.05;2.42;;;;;;;;;;5003076;28;20449;-60
2024/03/26 03:11:12;;;;;;;3.72;2.40;;;;;;;;;;5001127;28;20485;-63
2024/03/26 03:13:37;;;;;;;3.33;2.38;;;;;;;;;;4987519;28;20026;-60
2024/03/26 03:16:03;;;;;;;3.38;2.40;;;;;;;;;;4992572;28;20542;-60
2024/03/26 03:18:28;;;;;;;3.75;2.58;;;;;;;;;;4986551;28;20042;-60
2024/03/26 03:20:53;;;;;;;3.45;2.22;;;;;;;;;;5003278;28;20506;-61
2024/03/26 03:23:19;;;;;;;3.67;2.45;;;;;;;;;;5013202;28;20426;-59
2024/03/26 03:25:44;;;;;;;3.42;2.22;;;;;;;;;;5004497;28;20524;-60
2024/03/26 03:28:09;;;;;;;3.63;2.47;;;;;;;;;;4995810;28;20495;-60
2024/03/26 03:30:35;;;;;;;3.35;2.20;;;;;;;;;;4985780;28;20034;-60
2024/03/26 03:33:01;;;;;;;3.53;2.50;;;;;;;;;;4996978;28;20125;-60
2024/03/26 03:35:26;;;;;;;3.70;2.17;;;;;;;;;;5003597;28;20138;-59
2024/03/26 03:37:51;;;;;;;3.70;2.42;;;;;;;;;;5006772;28;20046;-60
2024/03/26 03:40:17;;;;;;;3.03;2.15;;;;;;;;;;5009583;28;20034;-62
2024/03/26 03:42:43;;;;;;;4.07;2.42;;;;;;;;;;5008722;28;20133;-62
2024/03/26 03:45:08;;;;;;;3.47;2.30;;;;;;;;;;4993555;28;20103;-62
2024/03/26 03:47:33;;;;;;;3.70;2.38;;;;;;;;;;4990396;28;20066;-60
2024/03/26 03:49:59;;;;;;;3.45;2.28;;;;;;;;;;5008939;28;20148;-60
2024/03/26 03:52:24;;;;;;;3.50;2.40;;;;;;;;;;4996208;28;20038;-60
2024/03/26 03:54:49;;;;;;;3.33;2.30;;;;;;;;;;5003278;28;20159;-59
2024/03/26 03:57:14;;;;;;;7.07;4.32;;;;;;;;;;5008537;28;20029;-59
2024/03/26 03:59:40;;;;;;;2.92;2.22;;;;;;;;;;5001190;28;20477;-62
2024/03/26 04:02:05;;;;;;;3.25;2.40;;;;;;;;;;4996461;28;20030;-63
2024/03/26 04:04:30;;;;;;;3.80;2.40;;;;;;;;;;4996705;28;20037;-59
2024/03/26 04:06:56;;;;;;;4.57;2.53;;;;;;;;;;4995446;28;20042;-61
2024/03/26 04:09:23;;;;;;;4.57;2.47;;;;;;;;;;4998779;28;20510;-61
2024/03/26 04:11:50;;;;;;;4.25;2.90;;;;;;;;;;4997059;28;20038;-62
2024/03/26 04:14:15;;;;;;;4.43;2.60;;;;;;;;;;4998664;28;20026;-61
2024/03/26 04:16:43;;;;;;;3.80;2.58;;;;;;;;;;4996737;28;20588;-60
2024/03/26 04:19:08;;;;;;;3.75;2.53;;;;;;;;;;5003941;28;20084;-61
2024/03/26 04:21:33;;;;;;;4.43;2.30;;;;;;;;;;5002465;28;20405;-60
2024/03/26 04:23:59;;;;;;;4.63;2.05;;;;;;;;;;5006252;28;20042;-61
2024/03/26 04:26:24;;;;;;;3.63;2.45;;;;;;;;;;4995598;28;20060;-59
2024/03/26 04:28:49;;;;;;;3.75;2.22;;;;;;;;;;5004300;28;20038;-59
2024/03/26 04:31:15;;;;;;;3.35;2.22;;;;;;;;;;5002272;28;20044;-60
2024/03/26 04:33:40;;;;;;;3.58;2.50;;;;;;;;;;5002318;28;20049;-61
2024/03/26 04:36:05;;;;;;;3.05;2.30;;;;;;;;;;4998072;28;20037;-60
2024/03/26 04:38:31;;;;;;;4.25;2.38;;;;;;;;;;5006331;28;20045;-60
2024/03/26 04:40:56;;;;;;;3.25;2.50;;;;;;;;;;5013650;28;20506;-61
2024/03/26 04:43:21;;;;;;;3.08;2.30;;;;;;;;;;5001284;28;20057;-59
2024/03/26 04:45:47;;;;;;;3.72;2.67;;;;;;;;;;5005986;28;20478;-61
2024/03/26 04:48:12;;;;;;;3.55;2.38;;;;;;;;;;5003669;28;20081;-62
2024/03/26 04:50:37;;;;;;;3.67;2.50;;;;;;;;;;5007094;28;20029;-61
2024/03/26 04:53:02;;;;;;;3.80;2.47;;;;;;;;;;5003267;28;20022;-61
2024/03/26 04:55:28;;;;;;;2.95;1.98;;;;;;;;;;5001055;28;20462;-63
2024/03/26 04:57:53;;;;;;;3.28;2.42;;;;;;;;;;4998154;28;20354;-62
2024/03/26 05:00:18;;;;;;;3.67;2.33;;;;;;;;;;5005959;28;20488;-62
2024/03/26 05:02:44;;;;;;;3.38;2.30;;;;;;;;;;5002520;28;20525;-64
2024/03/26 05:05:09;;;;;;;4.03;2.38;;;;;;;;;;4999973;28;20108;-60
2024/03/26 05:07:35;;;;;;;3.15;2.20;;;;;;;;;;5004057;28;20040;-61
2024/03/26 05:10:00;;;;;;;3.50;2.30;;;;;;;;;;5001112;28;20026;-62
2024/03/26 05:12:26;;;;;;;3.40;2.28;;;;;;;;;;5004274;28;20127;-62
2024/03/26 05:14:51;;;;;;;3.28;2.30;;;;;;;;;;4997966;28;20339;-61
2024/03/26 05:17:16;;;;;;;3.78;2.00;;;;;;;;;;5003867;28;20091;-63
2024/03/26 05:19:42;;;;;;;3.17;2.05;;;;;;;;;;5004519;28;20135;-63
2024/03/26 05:22:07;;;;;;;2.90;2.08;;;;;;;;;;5004040;28;20025;-60
2024/03/26 05:24:33;;;;;;;4.05;2.15;;;;;;;;;;5004367;28;20616;-63
2024/03/26 05:26:59;;;;;;;3.75;2.25;;;;;;;;;;4996603;28;20046;-63
2024/03/26 05:29:24;;;;;;;3.63;2.33;;;;;;;;;;4992735;28;20014;-61
2024/03/26 05:31:50;;;;;;;53.28;9.30;;;;;;;;;;5000889;28;20041;-61
2024/03/26 05:34:15;;;;;;;21.80;9.10;;;;;;;;;;4998413;28;20022;-61
2024/03/26 05:36:40;;;;;;;19.70;7.68;;;;;;;;;;4994710;28;20026;-63
2024/03/26 05:39:05;;;;;;;10.27;3.90;;;;;;;;;;4999593;28;20394;-61
2024/03/26 05:41:31;;;;;;;10.93;4.07;;;;;;;;;;5000892;28;20053;-61
2024/03/26 05:43:57;;;;;;;11.88;4.63;;;;;;;;;;4996749;28;20116;-63
2024/03/26 05:46:22;;;;;;;7.57;4.00;;;;;;;;;;4998389;28;20133;-57
2024/03/26 05:48:47;;;;;;;7.32;3.85;;;;;;;;;;5000167;28;20506;-64
2024/03/26 05:51:13;;;;;;;7.43;4.28;;;;;;;;;;5001158;28;20030;-58
2024/03/26 05:53:38;;;;;;;8.85;3.80;;;;;;;;;;5004239;28;20032;-62
2024/03/26 05:56:04;;;;;;;10.15;3.80;;;;;;;;;;4997285;28;20128;-59
2024/03/26 05:58:29;;;;;;;9.57;5.50;;;;;;;;;;5003745;28;20029;-59
2024/03/26 06:00:54;;;;;;;9.27;3.90;;;;;;;;;;4993995;28;20062;-60
2024/03/26 06:03:19;;;;;;;8.85;3.88;;;;;;;;;;4989844;28;20520;-61
2024/03/26 06:05:45;;;;;;;6.68;3.28;;;;;;;;;;4995057;28;20579;-57
2024/03/26 06:08:10;;;;;;;6.88;3.92;;;;;;;;;;5001145;28;20072;-60
2024/03/26 06:10:35;;;;;;;6.68;3.75;;;;;;;;;;5002709;28;20053;-60
2024/03/26 06:13:01;;;;;;;4.70;3.28;;;;;;;;;;4997172;28;20150;-56
2024/03/26 06:15:26;;;;;;;5.50;3.40;;;;;;;;;;5001880;28;20417;-62
2024/03/26 06:17:51;;;;;;;5.57;3.60;;;;;;;;;;4989662;28;20038;-57
2024/03/26 06:20:17;;;;;;;5.35;3.22;;;;;;;;;;4997281;28;20034;-59
2024/03/26 06:22:42;;;;;;;7.10;3.50;;;;;;;;;;5000913;28;20030;-60
2024/03/26 06:25:07;;;;;;;7.72;3.10;;;;;;;;;;4995446;28;20029;-59
2024/03/26 06:27:32;;;;;;;5.68;3.30;;;;;;;;;;4990569;28;20370;-62
2024/03/26 06:29:58;;;;;;;5.97;3.47;;;;;;;;;;4993621;28;20025;-58
2024/03/26 06:32:24;;;;;;;7.38;3.38;;;;;;;;;;5002233;28;20429;-59
2024/03/26 06:34:49;;;;;;;5.60;3.55;;;;;;;;;;5000304;28;20060;-59
2024/03/26 06:37:14;;;;;;;5.45;2.90;;;;;;;;;;5002561;28;20029;-56
2024/03/26 06:39:39;;;;;;;7.20;3.58;;;;;;;;;;5001002;28;20455;-57
2024/03/26 06:42:05;;;;;;;6.35;3.33;;;;;;;;;;4997018;28;20033;-56
2024/03/26 06:44:30;;;;;;;5.25;3.05;;;;;;;;;;5001920;28;20029;-55
2024/03/26 06:46:55;;;;;;;5.72;3.30;;;;;;;;;;4999352;28;20083;-55
2024/03/26 06:49:21;;;;;;;6.70;3.20;;;;;;;;;;4999016;28;20039;-55
2024/03/26 06:51:46;;;;;;;5.90;3.45;;;;;;;;;;5003130;28;20041;-57
2024/03/26 06:54:12;;;;;;;7.65;3.40;;;;;;;;;;4998821;28;20053;-57
2024/03/26 06:56:37;;;;;;;5.88;3.50;;;;;;;;;;4999619;28;20057;-57
2024/03/26 06:59:02;;;;;;;6.15;3.33;;;;;;;;;;4998953;28;20035;-57
2024/03/26 07:01:28;;;;;;;5.97;3.40;;;;;;;;;;4990769;28;20415;-58
2024/03/26 07:03:53;;;;;;;4.90;3.20;;;;;;;;;;5004048;28;20587;-59
2024/03/26 07:06:18;;;;;;;5.05;3.08;;;;;;;;;;4993049;28;20090;-57
2024/03/26 07:08:44;;;;;;;4.72;3.20;;;;;;;;;;4997214;28;20038;-57
2024/03/26 07:11:09;;;;;;;6.68;3.40;;;;;;;;;;4995092;28;20054;-62
2024/03/26 07:13:35;;;;;;;5.13;3.28;;;;;;;;;;4996582;28;20105;-59
2024/03/26 07:16:00;;;;;;;5.97;3.67;;;;;;;;;;4993813;28;20049;-60
2024/03/26 07:18:25;;;;;;;5.05;3.35;;;;;;;;;;5001017;28;20033;-58
2024/03/26 07:20:50;;;;;;;5.75;3.35;;;;;;;;;;4998970;28;20042;-56
2024/03/26 07:23:16;;;;;;;4.72;3.03;;;;;;;;;;5028939;28;20029;-60
2024/03/26 07:25:41;;;;;;;5.72;3.58;;;;;;;;;;4997210;28;20072;-58
2024/03/26 07:28:06;;;;;;;5.18;3.58;;;;;;;;;;5001957;28;20761;-59
2024/03/26 07:30:32;;;;;;;4.60;3.30;;;;;;;;;;5002518;28;20066;-62
2024/03/26 07:32:57;;;;;;;5.78;3.25;;;;;;;;;;4999350;28;20216;-65
2024/03/26 07:35:22;;;;;;;5.88;3.15;;;;;;;;;;4999790;28;20129;-62
2024/03/26 07:37:48;;;;;;;5.07;3.03;;;;;;;;;;5000600;28;20119;-62
2024/03/26 07:40:13;;;;;;;5.80;3.33;;;;;;;;;;5001291;28;20030;-62
2024/03/26 07:42:39;;;;;;;6.13;3.55;;;;;;;;;;4997073;28;20038;-58
2024/03/26 07:45:04;;;;;;;6.63;3.78;;;;;;;;;;5002771;28;20113;-64
2024/03/26 07:47:29;;;;;;;6.22;3.45;;;;;;;;;;5003217;28;20042;-63
2024/03/26 07:49:55;;;;;;;4.70;3.10;;;;;;;;;;5002319;28;20030;-59
2024/03/26 07:52:20;;;;;;;4.72;2.90;;;;;;;;;;5001127;28;20045;-62
2024/03/26 07:54:45;;;;;;;4.63;3.58;;;;;;;;;;5003089;28;20033;-63
2024/03/26 07:57:10;;;;;;;7.05;3.58;;;;;;;;;;5000172;28;20033;-63
2024/03/26 07:59:36;;;;;;;5.72;3.38;;;;;;;;;;5002436;28;20049;-60
2024/03/26 08:02:01;;;;;;;4.55;3.30;;;;;;;;;;5002100;28;20049;-60
2024/03/26 08:04:26;;;;;;;4.43;3.15;;;;;;;;;;5001851;28;20038;-63
2024/03/26 08:06:52;;;;;;;4.07;2.88;;;;;;;;;;5001405;28;20041;-57
2024/03/26 08:09:17;;;;;;;6.15;3.35;;;;;;;;;;5003075;28;20038;-62
2024/03/26 08:11:42;;;;;;;5.40;3.20;;;;;;;;;;4999462;28;20776;-57
2024/03/26 08:14:08;;;;;;;5.32;3.10;;;;;;;;;;4999012;28;20030;-58
2024/03/26 08:16:33;;;;;;;4.55;3.10;;;;;;;;;;5000371;28;20045;-57
2024/03/26 08:18:58;;;;;;;6.55;3.08;;;;;;;;;;4998587;28;20041;-56
2024/03/26 08:21:23;;;;;;;5.60;3.58;;;;;;;;;;5001891;28;20058;-59
2024/03/26 08:23:49;;;;;;;5.18;3.10;;;;;;;;;;5003930;28;20103;-58
2024/03/26 08:26:14;;;;;;;3.92;2.90;;;;;;;;;;5003953;28;20038;-60
2024/03/26 08:28:39;;;;;;;5.88;3.13;;;;;;;;;;5002691;28;20034;-65
2024/03/26 08:31:05;;;;;;;5.72;3.50;;;;;;;;;;5001971;28;20120;-62
2024/03/26 08:33:32;;;;;;;5.18;3.25;;;;;;;;;;5003162;28;20580;-56
2024/03/26 08:36:02;;;;;;;4.93;3.05;;;;;;;;;;5003925;28;20030;-62
2024/03/26 08:38:27;;;;;;;5.32;3.05;;;;;;;;;;5002443;28;20045;-60
2024/03/26 08:40:52;;;;;;;4.40;3.25;;;;;;;;;;5002434;28;20541;-58
2024/03/26 08:43:18;;;;;;;4.95;3.35;;;;;;;;;;5002000;28;20034;-59
2024/03/26 08:45:44;;;;;;;5.13;2.83;;;;;;;;;;5005066;28;20048;-62
2024/03/26 08:48:09;;;;;;;4.38;2.90;;;;;;;;;;4996298;28;20034;-64
2024/03/26 08:50:35;;;;;;;4.28;2.90;;;;;;;;;;5002738;28;20383;-63
2024/03/26 08:53:00;;;;;;;4.10;3.13;;;;;;;;;;5003967;28;20030;-61
2024/03/26 08:55:25;;;;;;;4.22;2.88;;;;;;;;;;5003113;28;20034;-58
2024/03/26 08:57:51;;;;;;;4.82;2.95;;;;;;;;;;5005164;28;20455;-59
2024/03/26 09:00:17;;;;;;;4.38;2.75;;;;;;;;;;5006209;28;20025;-62
2024/03/26 09:02:42;;;;;;;4.40;2.70;;;;;;;;;;4999045;28;20058;-60
2024/03/26 09:05:08;;;;;;;5.10;3.10;;;;;;;;;;4989497;28;20038;-63
2024/03/26 09:07:33;;;;;;;4.70;2.88;;;;;;;;;;5005793;28;20045;-61
2024/03/26 09:09:58;;;;;;;3.80;2.70;;;;;;;;;;5004690;28;20069;-63
2024/03/26 09:12:24;;;;;;;4.55;2.83;;;;;;;;;;4999638;28;20413;-64
2024/03/26 09:14:49;;;;;;;3.90;2.78;;;;;;;;;;5000939;28;20037;-64
2024/03/26 09:17:14;;;;;;;4.35;3.15;;;;;;;;;;4991854;28;20180;-61
2024/03/26 09:19:40;;;;;;;3.38;2.55;;;;;;;;;;4998374;28;20038;-64
2024/03/26 09:22:05;;;;;;;5.07;2.90;;;;;;;;;;5004165;28;20049;-61
2024/03/26 09:24:31;;;;;;;4.28;2.90;;;;;;;;;;5005528;28;20034;-62
2024/03/26 09:26:57;;;;;;;4.57;2.72;;;;;;;;;;5001847;28;20054;-58
2024/03/26 09:29:22;;;;;;;4.25;2.80;;;;;;;;;;5002547;28;20038;-60
2024/03/26 09:31:47;;;;;;;5.63;2.95;;;;;;;;;;5003516;28;20034;-63
2024/03/26 09:34:12;;;;;;;5.70;3.00;;;;;;;;;;5002901;28;20041;-60
2024/03/26 09:36:38;;;;;;;4.93;2.60;;;;;;;;;;5005221;28;20150;-59
2024/03/26 09:39:03;;;;;;;4.25;2.60;;;;;;;;;;5004884;28;20037;-57
2024/03/26 09:41:28;;;;;;;3.95;2.85;;;;;;;;;;5003364;28;20049;-62
2024/03/26 09:43:54;;;;;;;4.20;2.92;;;;;;;;;;5003242;28;20049;-63
2024/03/26 09:46:19;;;;;;;3.47;2.38;;;;;;;;;;5002447;28;20049;-63
2024/03/26 09:48:46;;;;;;;4.47;2.75;;;;;;;;;;5001510;28;20048;-63
2024/03/26 09:51:12;;;;;;;4.40;2.40;;;;;;;;;;5013609;28;20104;-63
2024/03/26 09:53:38;;;;;;;4.80;2.53;;;;;;;;;;5004271;28;20030;-61
2024/03/26 09:56:03;;;;;;;4.25;2.63;;;;;;;;;;5005624;28;20565;-66
2024/03/26 09:58:29;;;;;;;3.35;2.20;;;;;;;;;;5002055;28;20037;-66
2024/03/26 10:00:54;;;;;;;4.18;2.35;;;;;;;;;;4999543;28;20049;-64
2024/03/26 10:03:20;;;;;;;3.72;2.67;;;;;;;;;;5001181;28;20045;-58
2024/03/26 10:05:45;;;;;;;3.38;2.22;;;;;;;;;;5004407;28;20124;-57
2024/03/26 10:08:10;;;;;;;4.38;2.58;;;;;;;;;;4997795;28;20122;-58
2024/03/26 10:10:39;;;;;;;5.20;2.90;;;;;;;;;;4994583;28;20094;-63
2024/03/26 10:13:09;;;;;;;5.03;2.33;;;;;;;;;;5000072;28;20060;-61
2024/03/26 10:15:34;;;;;;;3.33;2.58;;;;;;;;;;5002568;28;20640;-63
2024/03/26 10:18:00;;;;;;;3.40;2.30;;;;;;;;;;5004567;28;20120;-62
2024/03/26 10:20:28;;;;;;;3.10;2.30;;;;;;;;;;5001597;28;20055;-63
2024/03/26 10:23:00;;;;;;;4.05;2.42;;;;;;;;;;4999520;28;20596;-62
2024/03/26 10:25:26;;;;;;;3.35;2.40;;;;;;;;;;5000321;28;20038;-61
2024/03/26 10:27:51;;;;;;;3.70;2.38;;;;;;;;;;4999243;28;20128;-57
2024/03/26 10:30:17;;;;;;;4.13;2.40;;;;;;;;;;5000749;28;20534;-65
2024/03/26 10:32:42;;;;;;;4.30;2.30;;;;;;;;;;4998232;28;20030;-59
2024/03/26 10:35:08;;;;;;;3.20;2.22;;;;;;;;;;4999820;28;20041;-61
2024/03/26 10:37:33;;;;;;;3.70;2.40;;;;;;;;;;5001059;28;20884;-63
2024/03/26 10:40:12;;;;;;;3.85;2.42;;;;;;;;;;5002213;28;20061;-59
2024/03/26 10:42:52;;;;;;;3.90;2.00;;;;;;;;;;4997450;28;20145;-60
2024/03/26 10:45:18;;;;;;;4.40;2.30;;;;;;;;;;4995092;28;20081;-60
2024/03/26 10:47:43;;;;;;;4.28;2.10;;;;;;;;;;4999356;28;20157;-60
2024/03/26 10:50:12;;;;;;;4.13;2.67;;;;;;;;;;5000595;28;20112;-63
2024/03/26 10:52:56;;;;;;;4.47;2.47;;;;;;;;;;4999572;28;20465;-58
2024/03/26 10:55:21;;;;;;;4.18;2.70;;;;;;;;;;4998253;28;20037;-59
2024/03/26 10:57:48;;;;;;;3.90;2.22;;;;;;;;;;5001420;28;20133;-60
2024/03/26 11:00:13;;;;;;;2.90;2.17;;;;;;;;;;5001132;28;20030;-60
2024/03/26 11:02:42;;;;;;;3.80;2.30;;;;;;;;;;4999249;28;20045;-62
2024/03/26 11:05:08;;;;;;;2.80;2.22;;;;;;;;;;4993032;28;20034;-60
2024/03/26 11:07:36;;;;;;;3.65;2.30;;;;;;;;;;5000339;28;20053;-63
2024/03/26 11:10:09;;;;;;;3.53;2.30;;;;;;;;;;5002209;28;20038;-60
2024/03/26 11:12:35;;;;;;;5.07;2.35;;;;;;;;;;4998167;28;20082;-60
2024/03/26 11:15:10;;;;;;;3.60;2.38;;;;;;;;;;5001654;28;20500;-60
2024/03/26 11:17:36;;;;;;;3.22;2.15;;;;;;;;;;5000713;28;20026;-59
2024/03/26 11:20:01;;;;;;;2.60;2.03;;;;;;;;;;4999282;28;20076;-60
2024/03/26 11:22:26;;;;;;;3.67;2.28;;;;;;;;;;4997024;28;20482;-58
2024/03/26 11:24:52;;;;;;;2.95;2.15;;;;;;;;;;4999393;28;20049;-59
2024/03/26 11:27:17;;;;;;;2.78;1.85;;;;;;;;;;4997479;28;20046;-57
2024/03/26 11:29:42;;;;;;;3.53;2.08;;;;;;;;;;4998615;28;20040;-57
2024/03/26 11:32:08;;;;;;;3.63;2.25;;;;;;;;;;5001060;28;20045;-60
2024/03/26 11:34:35;;;;;;;3.63;2.10;;;;;;;;;;4998398;28;20137;-56
2024/03/26 11:37:00;;;;;;;2.95;1.95;;;;;;;;;;4998455;28;20041;-61
2024/03/26 11:39:25;;;;;;;3.13;1.83;;;;;;;;;;4997540;28;20470;-61
2024/03/26 11:41:51;;;;;;;3.08;2.00;;;;;;;;;;4999281;28;20065;-57
2024/03/26 11:44:16;;;;;;;2.80;1.85;;;;;;;;;;4999294;28;20030;-57
2024/03/26 11:46:44;;;;;;;3.22;2.00;;;;;;;;;;4997794;28;20163;-62
2024/03/26 11:49:09;;;;;;;5.47;1.80;;;;;;;;;;4999306;28;20037;-62
2024/03/26 11:51:35;;;;;;;2.65;1.75;;;;;;;;;;4997879;28;20188;-61
2024/03/26 11:54:00;;;;;;;2.53;1.70;;;;;;;;;;5000492;28;20050;-63
2024/03/26 11:56:25;;;;;;;3.22;1.92;;;;;;;;;;4998213;28;20633;-59
2024/03/26 11:58:51;;;;;;;6.03;2.15;;;;;;;;;;4995377;28;20072;-57
2024/03/26 12:01:20;;;;;;;5.90;1.92;;;;;;;;;;5008285;28;20026;-59
2024/03/26 12:03:54;;;;;;;4.57;2.35;;;;;;;;;;5004933;28;20034;-62
2024/03/26 12:06:21;;;;;;;5.72;2.40;;;;;;;;;;4999168;22;20046;-72
2024/03/26 12:08:46;;;;;;;4.80;2.10;;;;;;;;;;4946236;28;20114;-74
2024/03/26 12:11:12;;;;;;;4.80;2.03;;;;;;;;;;4969518;28;20114;-74
2024/03/26 12:13:37;;;;;;;3.63;1.63;;;;;;;;;;4972306;28;20064;-75
2024/03/26 12:16:02;;;;;;;4.43;2.00;;;;;;;;;;4972745;28;20156;-75
2024/03/26 12:18:30;;;;;;;3.70;2.03;;;;;;;;;;4940922;28;20039;-77
2024/03/26 12:20:56;;;;;;;4.70;1.95;;;;;;;;;;4957622;28;20082;-85
2024/03/26 12:23:24;;;;;;;3.55;1.98;;;;;;;;;;4975992;28;20080;-76
2024/03/26 12:25:50;;;;;;;4.20;1.83;;;;;;;;;;4964774;28;20120;-76
2024/03/26 12:28:16;;;;;;;2.95;1.90;;;;;;;;;;4973863;28;20050;-77
2024/03/26 12:30:42;;;;;;;2.20;1.70;;;;;;;;;;4974464;28;20114;-77
2024/03/26 12:33:07;;;;;;;5.57;1.83;;;;;;;;;;4965477;28;20121;-77
2024/03/26 12:35:32;;;;;;;2.53;1.67;;;;;;;;;;4973577;28;20039;-77
2024/03/26 12:37:57;;;;;;;3.22;1.83;;;;;;;;;;4979405;28;20098;-77
2024/03/26 12:40:23;;;;;;;3.10;1.70;;;;;;;;;;4974625;28;20046;-78
2024/03/26 12:42:49;;;;;;;4.97;1.83;;;;;;;;;;4981414;28;20035;-77
2024/03/26 12:45:14;;;;;;;2.38;1.52;;;;;;;;;;4971167;28;20065;-77
2024/03/26 12:47:39;;;;;;;2.70;1.70;;;;;;;;;;4990535;28;20062;-77
2024/03/26 12:50:05;;;;;;;2.40;1.60;;;;;;;;;;4988654;28;20043;-78
2024/03/26 12:52:30;;;;;;;2.38;1.67;;;;;;;;;;4990652;28;20062;-78
2024/03/26 12:54:56;;;;;;;4.05;1.85;;;;;;;;;;4990397;28;20043;-78
2024/03/26 12:57:21;;;;;;;2.20;1.48;;;;;;;;;;4967650;28;20500;-77
2024/03/26 12:59:46;;;;;;;3.05;1.50;;;;;;;;;;4973988;28;20047;-77
2024/03/26 13:02:11;;;;;;;2.58;1.60;;;;;;;;;;4975867;28;20039;-78
2024/03/26 13:04:37;;;;;;;2.40;1.90;;;;;;;;;;4972085;28;20035;-77
2024/03/26 13:07:02;;;;;;;3.10;1.70;;;;;;;;;;4955514;28;20046;-78
2024/03/26 13:09:28;;;;;;;2.90;1.80;;;;;;;;;;4954042;28;20062;-77
2024/03/26 13:11:53;;;;;;;2.28;1.40;;;;;;;;;;4967226;28;20045;-77
2024/03/26 13:14:19;;;;;;;2.63;1.60;;;;;;;;;;4938256;28;20537;-76
2024/03/26 13:16:44;;;;;;;3.17;1.60;;;;;;;;;;4971350;28;20043;-78
2024/03/26 13:19:09;;;;;;;2.50;1.60;;;;;;;;;;4973342;28;20102;-77
2024/03/26 13:21:35;;;;;;;2.22;1.52;;;;;;;;;;4973074;28;20137;-77
2024/03/26 13:24:00;;;;;;;3.47;1.67;;;;;;;;;;4956755;28;20393;-78
2024/03/26 13:26:26;;;;;;;3.08;1.80;;;;;;;;;;4969149;28;20439;-77
2024/03/26 13:28:51;;;;;;;2.33;1.63;;;;;;;;;;4941204;28;20103;-79
2024/03/26 13:31:16;;;;;;;2.90;1.75;;;;;;;;;;4944213;28;20547;-78
2024/03/26 13:33:42;;;;;;;2.55;1.73;;;;;;;;;;4973595;28;20038;-79
2024/03/26 13:36:08;;;;;;;2.50;1.50;;;;;;;;;;4941338;28;20089;-79
2024/03/26 13:38:34;;;;;;;2.83;1.60;;;;;;;;;;4964298;28;20114;-78
2024/03/26 13:40:59;;;;;;;2.58;1.65;;;;;;;;;;4971637;28;20177;-77
2024/03/26 13:43:24;;;;;;;2.40;1.77;;;;;;;;;;4970837;28;20031;-78
2024/03/26 13:45:49;;;;;;;2.35;1.60;;;;;;;;;;4970532;28;20050;-79
2024/03/26 13:48:17;;;;;;;2.30;1.42;;;;;;;;;;4953572;28;20055;-77
2024/03/26 13:50:42;;;;;;;2.50;1.55;;;;;;;;;;4951297;28;20034;-78
2024/03/26 13:53:07;;;;;;;2.63;1.42;;;;;;;;;;4970063;28;20042;-77
2024/03/26 13:55:33;;;;;;;2.15;1.58;;;;;;;;;;4971513;28;20545;-78
2024/03/26 13:57:58;;;;;;;2.10;1.27;;;;;;;;;;4972047;28;20047;-78
2024/03/26 14:00:24;;;;;;;2.47;1.60;;;;;;;;;;4972052;28;20182;-78
2024/03/26 14:02:49;;;;;;;2.28;1.40;;;;;;;;;;4967407;28;20043;-77
2024/03/26 14:05:14;;;;;;;2.45;1.50;;;;;;;;;;4970854;28;20516;-78
2024/03/26 14:07:40;;;;;;;2.38;1.58;;;;;;;;;;4949699;28;20063;-77
2024/03/26 14:10:05;;;;;;;3.10;1.67;;;;;;;;;;4968603;28;21055;-79
2024/03/26 14:12:31;;;;;;;2.28;1.55;;;;;;;;;;4961728;28;20089;-79
2024/03/26 14:14:56;;;;;;;2.47;1.52;;;;;;;;;;4967025;28;22977;-77
2024/03/26 14:17:22;;;;;;;2.70;1.67;;;;;;;;;;4964179;28;20059;-77
2024/03/26 14:19:47;;;;;;;2.20;1.48;;;;;;;;;;4962753;28;20038;-78
2024/03/26 14:22:12;;;;;;;2.53;1.60;;;;;;;;;;4966585;28;20117;-77
2024/03/26 14:24:38;;;;;;;2.75;1.55;;;;;;;;;;4962819;28;20031;-77
2024/03/26 14:27:03;;;;;;;3.10;1.38;;;;;;;;;;4964992;28;20047;-84
2024/03/26 14:29:29;;;;;;;2.08;1.40;;;;;;;;;;4949846;28;20504;-78
2024/03/26 14:31:54;;;;;;;1.58;1.20;;;;;;;;;;4961317;28;20034;-77
2024/03/26 14:34:20;;;;;;;2.28;1.52;;;;;;;;;;4964860;28;20515;-78